createdAt,value
2022-10-29T00:00:55.149Z,52.05
2022-10-29T00:06:06.176Z,51.96
2022-10-29T00:11:16.408Z,51.80
2022-10-29T00:16:20.989Z,52.11
2022-10-29T00:21:25.128Z,51.85
2022-10-29T00:26:30.387Z,52.09
2022-10-29T00:31:32.426Z,52.03
2022-10-29T00:36:34.451Z,51.97
2022-10-29T00:41:36.214Z,51.94
2022-10-29T00:52:02.995Z,51.94
2022-10-29T00:57:10.754Z,51.82
2022-10-29T01:02:12.941Z,51.83
2022-10-29T01:07:14.849Z,51.87
2022-10-29T01:12:28.459Z,51.88
2022-10-29T01:17:50.457Z,51.86
2022-10-29T01:23:13.798Z,52.12
2022-10-29T01:33:39.683Z,51.98
2022-10-29T01:38:55.872Z,51.85
2022-10-29T01:44:06.251Z,51.85
2022-10-29T01:49:14.327Z,51.59
2022-10-29T01:54:16.131Z,52.08
2022-10-29T01:59:28.806Z,51.68
2022-10-29T02:04:56.803Z,51.70
2022-10-29T02:10:20.340Z,51.83
2022-10-29T02:15:27.017Z,51.65
2022-10-29T02:20:29.434Z,51.65
2022-10-29T02:25:31.441Z,51.82
2022-10-29T02:30:33.623Z,51.65
2022-10-29T02:35:35.354Z,51.48
2022-10-29T02:40:37.159Z,51.46
2022-10-29T02:45:38.976Z,51.51
2022-10-29T02:50:40.885Z,51.52
2022-10-29T02:55:42.662Z,50.97
2022-10-29T03:00:44.426Z,51.24
2022-10-29T03:05:49.021Z,51.45
2022-10-29T03:10:51.283Z,51.20
2022-10-29T03:15:53.182Z,51.63
2022-10-29T03:20:55.027Z,51.43
2022-10-29T03:25:56.992Z,51.43
2022-10-29T03:30:59.172Z,51.19
2022-10-29T03:36:03.182Z,51.11
2022-10-29T03:41:10.679Z,51.57
2022-10-29T03:46:12.758Z,51.20
2022-10-29T03:51:14.623Z,51.67
2022-10-29T03:56:16.298Z,51.38
2022-10-29T04:01:18.177Z,51.20
2022-10-29T04:06:20.039Z,51.01
2022-10-29T04:11:23.070Z,50.97
2022-10-29T04:16:25.046Z,51.35
2022-10-29T04:32:10.803Z,51.43
2022-10-29T04:37:12.742Z,51.44
2022-10-29T04:42:14.570Z,51.33
2022-10-29T04:47:16.518Z,51.30
2022-10-29T04:52:18.455Z,51.46
2022-10-29T04:57:20.586Z,51.32
2022-10-29T05:02:22.296Z,51.30
2022-10-29T05:07:24.175Z,51.39
2022-10-29T05:12:26.096Z,51.19
2022-10-29T05:17:27.874Z,51.45
2022-10-29T05:22:29.640Z,51.48
2022-10-29T05:27:31.631Z,51.18
2022-10-29T05:32:33.421Z,51.32
2022-10-29T05:37:35.252Z,51.29
2022-10-29T05:42:38.477Z,51.30
2022-10-29T05:47:40.785Z,51.47
2022-10-29T05:52:42.761Z,51.16
2022-10-29T05:57:44.514Z,51.46
2022-10-29T06:02:46.492Z,51.34
2022-10-29T06:07:57.348Z,51.41
2022-10-29T06:12:59.395Z,51.43
2022-10-29T06:18:01.156Z,51.31
2022-10-29T06:23:03.095Z,50.99
2022-10-29T06:28:10.453Z,51.44
2022-10-29T06:33:12.175Z,51.00
2022-10-29T06:38:14.248Z,52.08
2022-10-29T06:43:15.866Z,51.71
2022-10-29T06:48:21.659Z,52.07
2022-10-29T06:53:24.487Z,51.55
2022-10-29T06:58:26.247Z,51.61
2022-10-29T07:03:28.248Z,51.19
2022-10-29T07:08:30.792Z,51.59
2022-10-29T07:13:32.572Z,51.65
2022-10-29T07:18:34.569Z,51.63
2022-10-29T07:23:36.602Z,51.85
2022-10-29T07:28:38.593Z,51.83
2022-10-29T07:33:40.387Z,52.31
2022-10-29T07:38:42.191Z,52.01
2022-10-29T07:43:43.915Z,52.40
2022-10-29T07:48:45.733Z,52.34
2022-10-29T07:53:47.580Z,52.44
2022-10-29T07:58:49.469Z,52.39
2022-10-29T08:03:51.609Z,52.58
2022-10-29T08:08:53.500Z,52.24
2022-10-29T08:13:55.212Z,52.05
2022-10-29T08:18:57.252Z,52.23
2022-10-29T08:23:59.130Z,52.00
2022-10-29T08:29:00.933Z,52.27
2022-10-29T08:34:04.991Z,52.23
2022-10-29T08:39:10.280Z,51.86
2022-10-29T08:44:46.116Z,51.94
2022-10-29T08:50:15.243Z,51.77
2022-10-29T08:55:20.395Z,51.67
2022-10-29T09:00:25.591Z,51.30
2022-10-29T09:05:32.768Z,51.07
2022-10-29T09:10:51.294Z,51.23
2022-10-29T09:15:57.224Z,51.19
2022-10-29T09:21:14.155Z,51.68
2022-10-29T09:26:54.663Z,51.75
2022-10-29T09:32:09.183Z,51.86
2022-10-29T09:37:23.278Z,51.63
2022-10-29T09:42:36.266Z,51.57
2022-10-29T09:48:10.182Z,51.88
2022-10-29T09:53:12.036Z,51.57
2022-10-29T09:58:21.241Z,51.59
2022-10-29T10:03:45.670Z,51.50
2022-10-29T10:09:06.376Z,51.53
2022-10-29T10:14:22.800Z,51.65
2022-10-29T10:19:30.842Z,51.70
2022-10-29T10:24:37.552Z,51.44
2022-10-29T10:29:39.300Z,51.90
2022-10-29T10:34:41.198Z,51.90
2022-10-29T10:39:46.026Z,52.14
2022-10-29T10:44:54.653Z,52.64
2022-10-29T10:50:12.539Z,51.92
2022-10-29T10:55:17.481Z,52.13
2022-10-29T11:00:21.968Z,52.19
2022-10-29T11:05:32.224Z,51.73
2022-10-29T11:10:37.741Z,51.64
2022-10-29T11:15:47.787Z,51.74
2022-10-29T11:21:03.643Z,51.53
2022-10-29T11:26:17.726Z,51.53
2022-10-29T11:31:37.276Z,51.48
2022-10-29T11:36:49.083Z,51.52
2022-10-29T11:41:58.027Z,51.73
2022-10-29T11:47:21.253Z,51.37
2022-10-29T11:52:35.543Z,51.34
2022-10-29T11:57:48.949Z,51.27
2022-10-29T12:03:28.223Z,51.12
2022-10-29T12:09:00.241Z,51.12
2022-10-29T12:14:56.049Z,51.19
2022-10-29T12:20:13.086Z,50.95
2022-10-29T12:25:33.476Z,50.59
2022-10-29T12:30:43.517Z,50.95
2022-10-29T12:36:11.731Z,50.92
2022-10-29T12:41:24.107Z,50.80
2022-10-29T12:46:31.605Z,50.42
2022-10-29T12:51:42.357Z,50.46
2022-10-29T12:56:47.794Z,50.89
2022-10-29T13:13:18.530Z,50.77
2022-10-29T13:18:44.620Z,50.76
2022-10-29T13:24:04.016Z,50.62
2022-10-29T13:29:07.640Z,50.46
2022-10-29T13:34:09.304Z,50.55
2022-10-29T13:39:18.934Z,50.48
2022-10-29T13:44:26.352Z,50.21
2022-10-29T13:49:33.160Z,50.51
2022-10-29T13:54:47.368Z,51.06
2022-10-29T13:59:58.492Z,51.08
2022-10-29T14:05:19.469Z,51.52
2022-10-29T14:10:34.655Z,51.47
2022-10-29T14:15:39.359Z,51.62
2022-10-29T14:20:41.215Z,51.33
2022-10-29T14:25:42.854Z,51.45
2022-10-29T14:30:58.445Z,51.04
2022-10-29T14:36:20.358Z,51.30
2022-10-29T14:41:24.556Z,51.02
2022-10-29T14:46:29.289Z,51.37
2022-10-29T14:51:40.295Z,51.20
2022-10-29T14:56:42.274Z,51.32
2022-10-29T15:02:00.840Z,51.22
2022-10-29T15:07:30.157Z,51.22
2022-10-29T15:12:37.160Z,51.74
2022-10-29T15:17:50.389Z,51.85
2022-10-29T15:22:55.855Z,51.69
2022-10-29T15:27:58.574Z,51.49
2022-10-29T15:33:02.919Z,51.98
2022-10-29T15:38:04.698Z,51.93
2022-10-29T15:43:29.918Z,51.61
2022-10-29T15:48:39.635Z,51.70
2022-10-29T15:53:41.579Z,52.06
2022-10-29T15:58:43.443Z,52.00
2022-10-29T16:03:45.157Z,51.96
2022-10-29T16:08:52.757Z,52.09
2022-10-29T16:13:55.576Z,51.93
2022-10-29T16:18:57.486Z,52.10
2022-10-29T16:23:59.309Z,51.80
2022-10-29T16:29:00.991Z,51.78
2022-10-29T16:34:05.426Z,51.99
2022-10-29T16:39:07.299Z,52.44
2022-10-29T16:44:09.188Z,52.24
2022-10-29T16:49:11.046Z,52.13
2022-10-29T16:54:12.836Z,52.21
2022-10-29T16:59:14.865Z,51.78
2022-10-29T17:04:16.664Z,52.15
2022-10-29T17:09:21.829Z,52.24
2022-10-29T17:14:27.099Z,53.19
2022-10-29T17:19:29.547Z,53.25
2022-10-29T17:24:31.394Z,53.28
2022-10-29T17:29:36.296Z,52.69
2022-10-29T17:34:38.380Z,52.73
2022-10-29T17:39:40.182Z,52.54
2022-10-29T17:44:42.197Z,52.61
2022-10-29T17:49:44.060Z,52.55
2022-10-29T17:54:46.028Z,52.05
2022-10-29T17:59:47.908Z,52.12
2022-10-29T18:04:49.707Z,52.21
2022-10-29T18:09:51.504Z,52.92
2022-10-29T18:14:53.386Z,52.79
2022-10-29T18:19:55.167Z,53.77
2022-10-29T18:24:57.253Z,53.17
2022-10-29T18:29:59.093Z,52.12
2022-10-29T18:35:00.999Z,52.57
2022-10-29T18:40:02.752Z,52.44
2022-10-29T18:45:04.996Z,52.10
2022-10-29T18:50:07.161Z,51.93
2022-10-29T18:55:09.265Z,51.82
2022-10-29T19:00:11.932Z,52.43
2022-10-29T19:05:14.023Z,52.33
2022-10-29T19:10:16.014Z,52.17
2022-10-29T19:15:17.811Z,52.92
2022-10-29T19:20:19.894Z,52.48
2022-10-29T19:25:22.110Z,52.54
2022-10-29T19:30:23.935Z,52.96
2022-10-29T19:35:25.759Z,52.62
2022-10-29T19:40:27.578Z,52.63
2022-10-29T19:45:29.251Z,52.71
2022-10-29T19:50:31.031Z,52.68
2022-10-29T19:55:32.986Z,52.38
2022-10-29T20:00:34.910Z,52.36
2022-10-29T20:05:36.682Z,52.51
2022-10-29T20:10:38.812Z,52.36
2022-10-29T20:15:41.027Z,52.12
2022-10-29T20:20:42.914Z,51.59
2022-10-29T20:25:44.612Z,51.67
2022-10-29T20:30:46.861Z,51.06
2022-10-29T20:35:48.684Z,51.09
2022-10-29T20:40:51.504Z,50.63
2022-10-29T20:45:53.383Z,50.60
2022-10-29T20:50:55.485Z,51.08
2022-10-29T20:55:57.263Z,50.90
2022-10-29T21:01:10.200Z,51.50
2022-10-29T21:06:17.023Z,51.29
2022-10-29T21:11:21.508Z,51.00
2022-10-29T21:16:26.640Z,51.17
2022-10-29T21:21:29.864Z,51.47
2022-10-29T21:26:31.640Z,51.41
2022-10-29T21:31:33.273Z,51.34
2022-10-29T21:36:35.242Z,51.92
2022-10-29T21:41:37.135Z,52.03
2022-10-29T21:46:38.846Z,52.06
2022-10-29T21:51:40.724Z,51.71
2022-10-29T21:56:42.482Z,51.95
2022-10-29T22:01:44.487Z,51.90
2022-10-29T22:06:46.442Z,51.66
2022-10-29T22:11:48.375Z,51.66
2022-10-29T22:16:50.184Z,51.89
2022-10-29T22:21:51.959Z,51.96
2022-10-29T22:26:53.711Z,51.72
2022-10-29T22:31:55.601Z,51.74
2022-10-29T22:36:57.587Z,51.53
2022-10-29T22:41:59.378Z,51.61
2022-10-29T22:47:01.825Z,51.10
2022-10-29T22:52:03.795Z,51.15
2022-10-29T22:57:05.645Z,51.52
2022-10-29T23:02:07.855Z,51.84
2022-10-29T23:07:09.848Z,51.58
2022-10-29T23:12:11.924Z,51.43
2022-10-29T23:17:19.843Z,51.57
2022-10-29T23:22:23.387Z,51.33
2022-10-29T23:27:28.621Z,51.46
2022-10-29T23:32:30.559Z,51.50
2022-10-29T23:37:32.392Z,51.76
2022-10-29T23:42:34.363Z,51.50
2022-10-29T23:47:36.309Z,51.50
2022-10-29T23:52:38.137Z,51.51
2022-10-29T23:57:40.062Z,51.39
